sensor_id;sensor_type;location;lat;lon;timestamp;P1;durP1;ratioP1;P2;durP2;ratioP2
22687;SDS011;11511;51.514;7.080;2022-10-12T00:01:22;26.02;;;13.43;;
22687;SDS011;11511;51.514;7.080;2022-10-12T00:03:47;22.05;;;12.73;;
22687;SDS011;11511;51.514;7.080;2022-10-12T00:06:15;22.73;;;13.15;;
22687;SDS011;11511;51.514;7.080;2022-10-12T00:08:42;20.70;;;12.98;;
22687;SDS011;11511;51.514;7.080;2022-10-12T00:11:10;24.55;;;12.98;;
22687;SDS011;11511;51.514;7.080;2022-10-12T00:13:39;25.58;;;13.40;;
22687;SDS011;11511;51.514;7.080;2022-10-12T00:16:06;22.08;;;13.35;;
22687;SDS011;11511;51.514;7.080;2022-10-12T00:18:33;19.17;;;12.68;;
22687;SDS011;11511;51.514;7.080;2022-10-12T00:21:05;23.20;;;13.18;;
22687;SDS011;11511;51.514;7.080;2022-10-12T00:23:34;23.30;;;12.98;;
22687;SDS011;11511;51.514;7.080;2022-10-12T00:26:06;23.10;;;12.70;;
22687;SDS011;11511;51.514;7.080;2022-10-12T00:28:35;21.77;;;12.15;;
22687;SDS011;11511;51.514;7.080;2022-10-12T00:31:01;21.77;;;12.73;;
22687;SDS011;11511;51.514;7.080;2022-10-12T00:33:41;20.08;;;12.50;;
22687;SDS011;11511;51.514;7.080;2022-10-12T00:36:14;18.48;;;12.18;;
22687;SDS011;11511;51.514;7.080;2022-10-12T00:38:42;21.13;;;12.52;;
22687;SDS011;11511;51.514;7.080;2022-10-12T00:41:08;20.52;;;12.60;;
22687;SDS011;11511;51.514;7.080;2022-10-12T00:43:36;24.15;;;12.93;;
22687;SDS011;11511;51.514;7.080;2022-10-12T00:49:13;21.57;;;13.23;;
22687;SDS011;11511;51.514;7.080;2022-10-12T00:51:43;19.33;;;11.77;;
22687;SDS011;11511;51.514;7.080;2022-10-12T00:54:14;21.65;;;13.00;;
22687;SDS011;11511;51.514;7.080;2022-10-12T00:56:44;20.20;;;12.40;;
22687;SDS011;11511;51.514;7.080;2022-10-12T00:59:15;20.42;;;12.00;;
22687;SDS011;11511;51.514;7.080;2022-10-12T01:01:47;26.17;;;12.95;;
22687;SDS011;11511;51.514;7.080;2022-10-12T01:04:14;21.58;;;12.77;;
22687;SDS011;11511;51.514;7.080;2022-10-12T01:06:39;22.83;;;12.82;;
22687;SDS011;11511;51.514;7.080;2022-10-12T01:09:05;22.67;;;12.90;;
22687;SDS011;11511;51.514;7.080;2022-10-12T01:11:31;21.85;;;12.57;;
22687;SDS011;11511;51.514;7.080;2022-10-12T01:13:56;25.20;;;13.52;;
22687;SDS011;11511;51.514;7.080;2022-10-12T01:22:02;24.35;;;12.93;;
22687;SDS011;11511;51.514;7.080;2022-10-12T01:27:02;20.35;;;12.35;;
22687;SDS011;11511;51.514;7.080;2022-10-12T01:30:04;23.70;;;13.18;;
22687;SDS011;11511;51.514;7.080;2022-10-12T01:38:11;22.92;;;13.00;;
22687;SDS011;11511;51.514;7.080;2022-10-12T01:40:56;23.40;;;12.82;;
22687;SDS011;11511;51.514;7.080;2022-10-12T01:43:49;20.00;;;12.57;;
22687;SDS011;11511;51.514;7.080;2022-10-12T01:48:41;25.30;;;12.60;;
22687;SDS011;11511;51.514;7.080;2022-10-12T01:51:09;19.10;;;12.63;;
22687;SDS011;11511;51.514;7.080;2022-10-12T01:53:41;24.27;;;12.93;;
22687;SDS011;11511;51.514;7.080;2022-10-12T02:01:44;20.73;;;12.25;;
22687;SDS011;11511;51.514;7.080;2022-10-12T02:04:44;19.75;;;12.35;;
22687;SDS011;11511;51.514;7.080;2022-10-12T02:07:17;24.05;;;12.27;;
22687;SDS011;11511;51.514;7.080;2022-10-12T02:09:48;20.83;;;12.55;;
22687;SDS011;11511;51.514;7.080;2022-10-12T02:12:18;21.08;;;12.05;;
22687;SDS011;11511;51.514;7.080;2022-10-12T02:14:55;22.85;;;12.38;;
22687;SDS011;11511;51.514;7.080;2022-10-12T02:17:24;20.95;;;12.57;;
22687;SDS011;11511;51.514;7.080;2022-10-12T02:19:54;20.00;;;12.48;;
22687;SDS011;11511;51.514;7.080;2022-10-12T02:22:22;22.08;;;13.02;;
22687;SDS011;11511;51.514;7.080;2022-10-12T02:24:52;23.25;;;13.07;;
22687;SDS011;11511;51.514;7.080;2022-10-12T02:27:21;23.38;;;13.55;;
22687;SDS011;11511;51.514;7.080;2022-10-12T02:29:51;23.88;;;13.40;;
22687;SDS011;11511;51.514;7.080;2022-10-12T02:32:32;21.80;;;13.27;;
22687;SDS011;11511;51.514;7.080;2022-10-12T02:38:18;29.27;;;14.43;;
22687;SDS011;11511;51.514;7.080;2022-10-12T02:40:50;19.70;;;12.60;;
22687;SDS011;11511;51.514;7.080;2022-10-12T02:43:41;24.05;;;13.63;;
22687;SDS011;11511;51.514;7.080;2022-10-12T02:46:12;25.77;;;13.60;;
22687;SDS011;11511;51.514;7.080;2022-10-12T02:48:39;22.15;;;13.07;;
22687;SDS011;11511;51.514;7.080;2022-10-12T02:51:06;26.30;;;13.65;;
22687;SDS011;11511;51.514;7.080;2022-10-12T02:53:33;22.63;;;13.07;;
22687;SDS011;11511;51.514;7.080;2022-10-12T02:56:08;24.58;;;13.52;;
22687;SDS011;11511;51.514;7.080;2022-10-12T02:58:36;26.10;;;13.25;;
22687;SDS011;11511;51.514;7.080;2022-10-12T03:01:02;23.67;;;13.68;;
22687;SDS011;11511;51.514;7.080;2022-10-12T03:03:28;20.45;;;12.77;;
22687;SDS011;11511;51.514;7.080;2022-10-12T03:05:54;21.55;;;13.07;;
22687;SDS011;11511;51.514;7.080;2022-10-12T03:08:20;22.98;;;13.45;;
22687;SDS011;11511;51.514;7.080;2022-10-12T03:10:46;21.90;;;13.07;;
22687;SDS011;11511;51.514;7.080;2022-10-12T03:13:12;19.83;;;13.05;;
22687;SDS011;11511;51.514;7.080;2022-10-12T03:15:37;22.85;;;13.73;;
22687;SDS011;11511;51.514;7.080;2022-10-12T03:18:03;26.75;;;12.80;;
22687;SDS011;11511;51.514;7.080;2022-10-12T03:20:29;25.38;;;13.57;;
22687;SDS011;11511;51.514;7.080;2022-10-12T03:22:54;23.23;;;12.68;;
22687;SDS011;11511;51.514;7.080;2022-10-12T03:25:20;27.67;;;13.60;;
22687;SDS011;11511;51.514;7.080;2022-10-12T03:27:46;24.80;;;13.18;;
22687;SDS011;11511;51.514;7.080;2022-10-12T03:30:12;23.77;;;13.20;;
22687;SDS011;11511;51.514;7.080;2022-10-12T03:32:38;23.13;;;13.27;;
22687;SDS011;11511;51.514;7.080;2022-10-12T03:35:04;21.40;;;12.80;;
22687;SDS011;11511;51.514;7.080;2022-10-12T03:37:30;21.63;;;12.35;;
22687;SDS011;11511;51.514;7.080;2022-10-12T03:39:56;23.15;;;12.73;;
22687;SDS011;11511;51.514;7.080;2022-10-12T03:42:22;20.42;;;12.52;;
22687;SDS011;11511;51.514;7.080;2022-10-12T03:44:47;19.40;;;12.77;;
22687;SDS011;11511;51.514;7.080;2022-10-12T03:47:13;19.45;;;12.48;;
22687;SDS011;11511;51.514;7.080;2022-10-12T03:49:39;17.92;;;12.25;;
22687;SDS011;11511;51.514;7.080;2022-10-12T03:52:04;20.80;;;12.27;;
22687;SDS011;11511;51.514;7.080;2022-10-12T03:54:30;21.15;;;12.25;;
22687;SDS011;11511;51.514;7.080;2022-10-12T03:56:56;18.55;;;11.95;;
22687;SDS011;11511;51.514;7.080;2022-10-12T03:59:21;21.13;;;11.77;;
22687;SDS011;11511;51.514;7.080;2022-10-12T04:01:47;16.95;;;11.80;;
22687;SDS011;11511;51.514;7.080;2022-10-12T04:04:13;21.55;;;13.05;;
22687;SDS011;11511;51.514;7.080;2022-10-12T04:06:38;22.92;;;12.57;;
22687;SDS011;11511;51.514;7.080;2022-10-12T04:09:04;24.63;;;12.30;;
22687;SDS011;11511;51.514;7.080;2022-10-12T04:11:30;20.92;;;12.57;;
22687;SDS011;11511;51.514;7.080;2022-10-12T04:13:56;25.25;;;13.18;;
22687;SDS011;11511;51.514;7.080;2022-10-12T04:16:21;24.25;;;12.82;;
22687;SDS011;11511;51.514;7.080;2022-10-12T04:18:47;23.65;;;13.77;;
22687;SDS011;11511;51.514;7.080;2022-10-12T04:21:13;23.17;;;13.73;;
22687;SDS011;11511;51.514;7.080;2022-10-12T04:23:41;21.92;;;13.80;;
22687;SDS011;11511;51.514;7.080;2022-10-12T04:26:07;21.42;;;13.80;;
22687;SDS011;11511;51.514;7.080;2022-10-12T04:28:33;23.15;;;14.02;;
22687;SDS011;11511;51.514;7.080;2022-10-12T04:30:59;22.08;;;13.68;;
22687;SDS011;11511;51.514;7.080;2022-10-12T04:33:25;23.55;;;13.80;;
22687;SDS011;11511;51.514;7.080;2022-10-12T04:35:51;22.65;;;13.60;;
22687;SDS011;11511;51.514;7.080;2022-10-12T04:38:17;23.30;;;14.18;;
22687;SDS011;11511;51.514;7.080;2022-10-12T04:40:46;24.77;;;14.63;;
22687;SDS011;11511;51.514;7.080;2022-10-12T04:43:13;25.05;;;14.60;;
22687;SDS011;11511;51.514;7.080;2022-10-12T04:45:40;21.20;;;13.73;;
22687;SDS011;11511;51.514;7.080;2022-10-12T04:48:05;27.45;;;14.07;;
22687;SDS011;11511;51.514;7.080;2022-10-12T04:50:31;23.95;;;13.63;;
22687;SDS011;11511;51.514;7.080;2022-10-12T04:52:57;23.98;;;14.10;;
22687;SDS011;11511;51.514;7.080;2022-10-12T04:55:23;20.48;;;13.70;;
22687;SDS011;11511;51.514;7.080;2022-10-12T04:57:49;21.02;;;13.73;;
22687;SDS011;11511;51.514;7.080;2022-10-12T05:00:15;25.67;;;13.75;;
22687;SDS011;11511;51.514;7.080;2022-10-12T05:02:41;22.40;;;14.10;;
22687;SDS011;11511;51.514;7.080;2022-10-12T05:05:07;25.10;;;14.27;;
22687;SDS011;11511;51.514;7.080;2022-10-12T05:07:33;23.42;;;14.43;;
22687;SDS011;11511;51.514;7.080;2022-10-12T05:09:59;23.23;;;14.65;;
22687;SDS011;11511;51.514;7.080;2022-10-12T05:12:25;20.80;;;13.43;;
22687;SDS011;11511;51.514;7.080;2022-10-12T05:14:50;23.70;;;14.27;;
22687;SDS011;11511;51.514;7.080;2022-10-12T05:17:16;24.08;;;14.38;;
22687;SDS011;11511;51.514;7.080;2022-10-12T05:19:42;28.38;;;14.82;;
22687;SDS011;11511;51.514;7.080;2022-10-12T05:22:08;22.85;;;14.07;;
22687;SDS011;11511;51.514;7.080;2022-10-12T05:24:33;21.25;;;14.05;;
22687;SDS011;11511;51.514;7.080;2022-10-12T05:26:59;26.08;;;13.68;;
22687;SDS011;11511;51.514;7.080;2022-10-12T05:29:25;25.52;;;14.63;;
22687;SDS011;11511;51.514;7.080;2022-10-12T05:31:51;23.77;;;14.00;;
22687;SDS011;11511;51.514;7.080;2022-10-12T05:34:17;27.50;;;14.82;;
22687;SDS011;11511;51.514;7.080;2022-10-12T05:36:43;27.85;;;15.35;;
22687;SDS011;11511;51.514;7.080;2022-10-12T05:39:09;24.88;;;14.70;;
22687;SDS011;11511;51.514;7.080;2022-10-12T05:41:34;24.92;;;14.45;;
22687;SDS011;11511;51.514;7.080;2022-10-12T05:44:00;20.75;;;14.50;;
22687;SDS011;11511;51.514;7.080;2022-10-12T05:46:25;24.80;;;14.57;;
22687;SDS011;11511;51.514;7.080;2022-10-12T05:48:51;21.88;;;13.88;;
22687;SDS011;11511;51.514;7.080;2022-10-12T05:51:17;20.23;;;13.20;;
22687;SDS011;11511;51.514;7.080;2022-10-12T05:53:42;23.38;;;14.35;;
22687;SDS011;11511;51.514;7.080;2022-10-12T05:56:08;23.73;;;13.60;;
22687;SDS011;11511;51.514;7.080;2022-10-12T05:58:34;23.77;;;14.07;;
22687;SDS011;11511;51.514;7.080;2022-10-12T06:01:08;23.23;;;13.93;;
22687;SDS011;11511;51.514;7.080;2022-10-12T06:03:36;26.00;;;13.77;;
22687;SDS011;11511;51.514;7.080;2022-10-12T06:06:03;24.77;;;13.65;;
22687;SDS011;11511;51.514;7.080;2022-10-12T06:08:31;25.02;;;14.13;;
22687;SDS011;11511;51.514;7.080;2022-10-12T06:10:58;23.85;;;13.88;;
22687;SDS011;11511;51.514;7.080;2022-10-12T06:13:23;22.13;;;13.82;;
22687;SDS011;11511;51.514;7.080;2022-10-12T06:15:49;24.77;;;14.20;;
22687;SDS011;11511;51.514;7.080;2022-10-12T06:18:16;28.25;;;15.60;;
22687;SDS011;11511;51.514;7.080;2022-10-12T06:20:46;25.08;;;15.75;;
22687;SDS011;11511;51.514;7.080;2022-10-12T06:23:17;27.23;;;15.02;;
22687;SDS011;11511;51.514;7.080;2022-10-12T06:25:45;25.40;;;15.32;;
22687;SDS011;11511;51.514;7.080;2022-10-12T06:28:12;26.40;;;15.13;;
22687;SDS011;11511;51.514;7.080;2022-10-12T06:30:39;29.48;;;15.80;;
22687;SDS011;11511;51.514;7.080;2022-10-12T06:33:04;23.35;;;15.95;;
22687;SDS011;11511;51.514;7.080;2022-10-12T06:35:31;29.15;;;15.85;;
22687;SDS011;11511;51.514;7.080;2022-10-12T06:37:57;24.98;;;16.38;;
22687;SDS011;11511;51.514;7.080;2022-10-12T06:40:22;33.38;;;17.85;;
22687;SDS011;11511;51.514;7.080;2022-10-12T06:42:48;32.47;;;17.45;;
22687;SDS011;11511;51.514;7.080;2022-10-12T06:45:15;32.85;;;17.95;;
22687;SDS011;11511;51.514;7.080;2022-10-12T06:47:41;32.65;;;18.10;;
22687;SDS011;11511;51.514;7.080;2022-10-12T06:50:07;33.13;;;18.20;;
22687;SDS011;11511;51.514;7.080;2022-10-12T06:52:34;32.50;;;18.00;;
22687;SDS011;11511;51.514;7.080;2022-10-12T06:54:59;30.17;;;17.65;;
22687;SDS011;11511;51.514;7.080;2022-10-12T06:57:25;31.27;;;18.67;;
22687;SDS011;11511;51.514;7.080;2022-10-12T06:59:51;30.20;;;18.13;;
22687;SDS011;11511;51.514;7.080;2022-10-12T07:02:17;32.75;;;19.58;;
22687;SDS011;11511;51.514;7.080;2022-10-12T07:04:43;34.83;;;20.42;;
22687;SDS011;11511;51.514;7.080;2022-10-12T07:07:08;37.15;;;20.70;;
22687;SDS011;11511;51.514;7.080;2022-10-12T07:09:34;41.00;;;20.23;;
22687;SDS011;11511;51.514;7.080;2022-10-12T07:12:00;33.92;;;20.60;;
22687;SDS011;11511;51.514;7.080;2022-10-12T07:14:26;32.38;;;19.67;;
22687;SDS011;11511;51.514;7.080;2022-10-12T07:16:52;31.48;;;20.30;;
22687;SDS011;11511;51.514;7.080;2022-10-12T07:19:17;30.48;;;20.17;;
22687;SDS011;11511;51.514;7.080;2022-10-12T07:21:43;36.65;;;21.33;;
22687;SDS011;11511;51.514;7.080;2022-10-12T07:24:12;38.60;;;22.73;;
22687;SDS011;11511;51.514;7.080;2022-10-12T07:26:38;34.17;;;23.65;;
22687;SDS011;11511;51.514;7.080;2022-10-12T07:29:03;39.75;;;24.98;;
22687;SDS011;11511;51.514;7.080;2022-10-12T07:31:29;43.88;;;25.50;;
22687;SDS011;11511;51.514;7.080;2022-10-12T07:33:55;43.03;;;25.20;;
22687;SDS011;11511;51.514;7.080;2022-10-12T07:36:20;48.85;;;26.95;;
22687;SDS011;11511;51.514;7.080;2022-10-12T07:38:46;47.33;;;27.88;;
22687;SDS011;11511;51.514;7.080;2022-10-12T07:41:13;44.50;;;28.02;;
22687;SDS011;11511;51.514;7.080;2022-10-12T07:43:40;42.15;;;29.30;;
22687;SDS011;11511;51.514;7.080;2022-10-12T07:46:06;45.55;;;28.60;;
22687;SDS011;11511;51.514;7.080;2022-10-12T07:48:32;43.60;;;28.23;;
22687;SDS011;11511;51.514;7.080;2022-10-12T07:51:05;40.78;;;26.67;;
22687;SDS011;11511;51.514;7.080;2022-10-12T07:53:32;43.72;;;27.50;;
22687;SDS011;11511;51.514;7.080;2022-10-12T07:56:03;35.42;;;24.25;;
22687;SDS011;11511;51.514;7.080;2022-10-12T07:58:31;36.33;;;23.35;;
22687;SDS011;11511;51.514;7.080;2022-10-12T08:01:02;33.50;;;21.40;;
22687;SDS011;11511;51.514;7.080;2022-10-12T08:03:29;30.02;;;18.17;;
22687;SDS011;11511;51.514;7.080;2022-10-12T08:05:55;20.25;;;13.73;;
22687;SDS011;11511;51.514;7.080;2022-10-12T08:08:21;23.88;;;11.27;;
22687;SDS011;11511;51.514;7.080;2022-10-12T08:10:46;15.43;;;9.52;;
22687;SDS011;11511;51.514;7.080;2022-10-12T08:13:12;18.73;;;10.10;;
22687;SDS011;11511;51.514;7.080;2022-10-12T08:15:38;20.08;;;7.72;;
22687;SDS011;11511;51.514;7.080;2022-10-12T08:18:03;11.15;;;7.40;;
22687;SDS011;11511;51.514;7.080;2022-10-12T08:20:29;15.40;;;7.38;;
22687;SDS011;11511;51.514;7.080;2022-10-12T08:22:55;14.95;;;6.35;;
22687;SDS011;11511;51.514;7.080;2022-10-12T08:25:20;10.82;;;5.50;;
22687;SDS011;11511;51.514;7.080;2022-10-12T08:27:46;13.90;;;6.10;;
22687;SDS011;11511;51.514;7.080;2022-10-12T08:30:12;16.65;;;6.35;;
22687;SDS011;11511;51.514;7.080;2022-10-12T08:32:38;9.65;;;5.10;;
22687;SDS011;11511;51.514;7.080;2022-10-12T08:35:04;9.02;;;5.22;;
22687;SDS011;11511;51.514;7.080;2022-10-12T08:37:30;11.52;;;5.28;;
22687;SDS011;11511;51.514;7.080;2022-10-12T08:39:56;13.55;;;5.93;;
22687;SDS011;11511;51.514;7.080;2022-10-12T08:43:11;16.23;;;4.90;;
22687;SDS011;11511;51.514;7.080;2022-10-12T08:48:50;15.02;;;5.35;;
22687;SDS011;11511;51.514;7.080;2022-10-12T08:51:09;13.80;;;4.85;;
22687;SDS011;11511;51.514;7.080;2022-10-12T08:56:14;11.32;;;5.10;;
22687;SDS011;11511;51.514;7.080;2022-10-12T08:58:42;11.32;;;4.82;;
22687;SDS011;11511;51.514;7.080;2022-10-12T09:06:41;10.55;;;4.05;;
22687;SDS011;11511;51.514;7.080;2022-10-12T09:11:59;9.43;;;3.70;;
22687;SDS011;11511;51.514;7.080;2022-10-12T09:14:34;17.17;;;4.40;;
22687;SDS011;11511;51.514;7.080;2022-10-12T09:17:04;8.45;;;3.80;;
22687;SDS011;11511;51.514;7.080;2022-10-12T09:19:57;10.82;;;3.78;;
22687;SDS011;11511;51.514;7.080;2022-10-12T09:22:28;11.63;;;3.10;;
22687;SDS011;11511;51.514;7.080;2022-10-12T09:24:55;9.20;;;3.05;;
22687;SDS011;11511;51.514;7.080;2022-10-12T09:27:22;14.05;;;3.10;;
22687;SDS011;11511;51.514;7.080;2022-10-12T09:29:54;9.27;;;2.60;;
22687;SDS011;11511;51.514;7.080;2022-10-12T09:32:48;8.63;;;2.92;;
22687;SDS011;11511;51.514;7.080;2022-10-12T09:35:25;13.50;;;2.92;;
22687;SDS011;11511;51.514;7.080;2022-10-12T09:37:51;6.10;;;2.40;;
22687;SDS011;11511;51.514;7.080;2022-10-12T09:40:20;10.38;;;3.00;;
22687;SDS011;11511;51.514;7.080;2022-10-12T09:42:49;6.30;;;2.03;;
22687;SDS011;11511;51.514;7.080;2022-10-12T09:45:17;9.43;;;2.47;;
22687;SDS011;11511;51.514;7.080;2022-10-12T09:50:39;7.32;;;2.05;;
22687;SDS011;11511;51.514;7.080;2022-10-12T09:53:23;7.88;;;2.20;;
22687;SDS011;11511;51.514;7.080;2022-10-12T09:55:56;6.75;;;2.20;;
22687;SDS011;11511;51.514;7.080;2022-10-12T09:58:25;4.95;;;2.10;;
22687;SDS011;11511;51.514;7.080;2022-10-12T10:03:44;5.53;;;1.77;;
22687;SDS011;11511;51.514;7.080;2022-10-12T10:06:12;5.55;;;1.90;;
22687;SDS011;11511;51.514;7.080;2022-10-12T10:08:41;6.75;;;2.25;;
22687;SDS011;11511;51.514;7.080;2022-10-12T10:11:17;5.72;;;1.88;;
22687;SDS011;11511;51.514;7.080;2022-10-12T10:13:49;6.35;;;2.00;;
22687;SDS011;11511;51.514;7.080;2022-10-12T10:16:16;8.70;;;2.10;;
22687;SDS011;11511;51.514;7.080;2022-10-12T10:18:54;7.97;;;2.25;;
22687;SDS011;11511;51.514;7.080;2022-10-12T10:21:31;8.45;;;2.25;;
22687;SDS011;11511;51.514;7.080;2022-10-12T10:24:06;5.53;;;1.73;;
22687;SDS011;11511;51.514;7.080;2022-10-12T10:26:55;6.30;;;2.00;;
22687;SDS011;11511;51.514;7.080;2022-10-12T10:34:48;4.90;;;1.85;;
22687;SDS011;11511;51.514;7.080;2022-10-12T10:37:25;9.18;;;2.15;;
22687;SDS011;11511;51.514;7.080;2022-10-12T10:39:52;6.82;;;2.03;;
22687;SDS011;11511;51.514;7.080;2022-10-12T10:42:21;6.20;;;2.25;;
22687;SDS011;11511;51.514;7.080;2022-10-12T10:45:00;7.05;;;2.30;;
22687;SDS011;11511;51.514;7.080;2022-10-12T10:47:31;5.88;;;1.85;;
22687;SDS011;11511;51.514;7.080;2022-10-12T10:50:02;4.35;;;1.88;;
22687;SDS011;11511;51.514;7.080;2022-10-12T10:52:52;5.50;;;2.10;;
22687;SDS011;11511;51.514;7.080;2022-10-12T10:55:23;10.15;;;1.60;;
22687;SDS011;11511;51.514;7.080;2022-10-12T11:00:31;5.88;;;2.13;;
22687;SDS011;11511;51.514;7.080;2022-10-12T11:03:00;5.65;;;1.88;;
22687;SDS011;11511;51.514;7.080;2022-10-12T11:05:53;6.85;;;1.65;;
22687;SDS011;11511;51.514;7.080;2022-10-12T11:08:28;6.65;;;1.73;;
22687;SDS011;11511;51.514;7.080;2022-10-12T11:11:00;8.73;;;2.25;;
22687;SDS011;11511;51.514;7.080;2022-10-12T11:18:57;5.18;;;1.70;;
22687;SDS011;11511;51.514;7.080;2022-10-12T11:21:31;5.95;;;2.00;;
22687;SDS011;11511;51.514;7.080;2022-10-12T11:24:12;8.30;;;1.75;;
22687;SDS011;11511;51.514;7.080;2022-10-12T11:26:45;6.22;;;1.70;;
22687;SDS011;11511;51.514;7.080;2022-10-12T11:29:21;7.70;;;1.65;;
22687;SDS011;11511;51.514;7.080;2022-10-12T11:31:51;5.95;;;1.60;;
22687;SDS011;11511;51.514;7.080;2022-10-12T11:34:21;4.40;;;1.60;;
22687;SDS011;11511;51.514;7.080;2022-10-12T11:36:51;8.00;;;1.60;;
22687;SDS011;11511;51.514;7.080;2022-10-12T11:39:23;7.63;;;1.48;;
22687;SDS011;11511;51.514;7.080;2022-10-12T11:41:57;7.72;;;1.50;;
22687;SDS011;11511;51.514;7.080;2022-10-12T11:47:02;7.18;;;1.75;;
22687;SDS011;11511;51.514;7.080;2022-10-12T11:49:46;7.05;;;1.90;;
22687;SDS011;11511;51.514;7.080;2022-10-12T11:52:14;6.72;;;1.90;;
22687;SDS011;11511;51.514;7.080;2022-10-12T11:57:13;4.90;;;1.73;;
22687;SDS011;11511;51.514;7.080;2022-10-12T11:59:48;5.05;;;1.60;;
22687;SDS011;11511;51.514;7.080;2022-10-12T12:02:28;7.72;;;1.77;;
22687;SDS011;11511;51.514;7.080;2022-10-12T12:05:00;5.97;;;1.80;;
22687;SDS011;11511;51.514;7.080;2022-10-12T12:07:43;7.35;;;1.95;;
22687;SDS011;11511;51.514;7.080;2022-10-12T12:18:15;6.43;;;2.00;;
22687;SDS011;11511;51.514;7.080;2022-10-12T12:23:25;6.60;;;2.20;;
22687;SDS011;11511;51.514;7.080;2022-10-12T12:28:38;6.05;;;1.90;;
22687;SDS011;11511;51.514;7.080;2022-10-12T12:31:12;4.35;;;1.60;;
22687;SDS011;11511;51.514;7.080;2022-10-12T12:33:42;10.00;;;2.08;;
22687;SDS011;11511;51.514;7.080;2022-10-12T12:36:15;5.75;;;1.88;;
22687;SDS011;11511;51.514;7.080;2022-10-12T12:38:54;4.95;;;1.88;;
22687;SDS011;11511;51.514;7.080;2022-10-12T12:41:21;5.75;;;1.83;;
22687;SDS011;11511;51.514;7.080;2022-10-12T12:43:59;6.38;;;1.90;;
22687;SDS011;11511;51.514;7.080;2022-10-12T12:49:24;7.28;;;1.92;;
22687;SDS011;11511;51.514;7.080;2022-10-12T12:52:04;6.75;;;1.95;;
22687;SDS011;11511;51.514;7.080;2022-10-12T12:54:36;4.28;;;1.95;;
22687;SDS011;11511;51.514;7.080;2022-10-12T13:05:38;5.57;;;1.70;;
22687;SDS011;11511;51.514;7.080;2022-10-12T13:11:36;8.32;;;2.42;;
22687;SDS011;11511;51.514;7.080;2022-10-12T13:14:17;10.07;;;2.35;;
22687;SDS011;11511;51.514;7.080;2022-10-12T13:19:23;7.03;;;2.00;;
22687;SDS011;11511;51.514;7.080;2022-10-12T13:21:50;5.97;;;2.00;;
22687;SDS011;11511;51.514;7.080;2022-10-12T13:24:23;5.30;;;1.90;;
22687;SDS011;11511;51.514;7.080;2022-10-12T13:26:57;4.70;;;1.50;;
22687;SDS011;11511;51.514;7.080;2022-10-12T13:29:42;8.48;;;2.00;;
22687;SDS011;11511;51.514;7.080;2022-10-12T13:32:31;4.40;;;1.70;;
22687;SDS011;11511;51.514;7.080;2022-10-12T13:35:29;6.97;;;2.00;;
22687;SDS011;11511;51.514;7.080;2022-10-12T13:38:03;8.18;;;2.13;;
22687;SDS011;11511;51.514;7.080;2022-10-12T13:40:31;5.75;;;2.10;;
22687;SDS011;11511;51.514;7.080;2022-10-12T13:45:52;9.05;;;2.42;;
22687;SDS011;11511;51.514;7.080;2022-10-12T13:48:19;9.82;;;2.25;;
22687;SDS011;11511;51.514;7.080;2022-10-12T13:50:51;8.40;;;2.60;;
22687;SDS011;11511;51.514;7.080;2022-10-12T13:53:22;8.77;;;2.20;;
22687;SDS011;11511;51.514;7.080;2022-10-12T13:55:56;10.35;;;2.45;;
22687;SDS011;11511;51.514;7.080;2022-10-12T13:58:29;6.75;;;2.60;;
22687;SDS011;11511;51.514;7.080;2022-10-12T14:00:58;9.07;;;2.40;;
22687;SDS011;11511;51.514;7.080;2022-10-12T14:03:24;5.05;;;2.25;;
22687;SDS011;11511;51.514;7.080;2022-10-12T14:05:52;6.03;;;2.00;;
22687;SDS011;11511;51.514;7.080;2022-10-12T14:08:20;9.55;;;2.67;;
22687;SDS011;11511;51.514;7.080;2022-10-12T14:10:49;7.32;;;2.55;;
22687;SDS011;11511;51.514;7.080;2022-10-12T14:13:21;6.95;;;2.42;;
22687;SDS011;11511;51.514;7.080;2022-10-12T14:15:54;9.45;;;2.65;;
22687;SDS011;11511;51.514;7.080;2022-10-12T14:18:30;4.65;;;2.42;;
22687;SDS011;11511;51.514;7.080;2022-10-12T14:23:42;6.93;;;2.40;;
22687;SDS011;11511;51.514;7.080;2022-10-12T14:26:13;7.53;;;2.65;;
22687;SDS011;11511;51.514;7.080;2022-10-12T14:28:46;6.20;;;2.22;;
22687;SDS011;11511;51.514;7.080;2022-10-12T14:31:12;6.93;;;2.28;;
22687;SDS011;11511;51.514;7.080;2022-10-12T14:33:38;11.15;;;2.40;;
22687;SDS011;11511;51.514;7.080;2022-10-12T14:36:21;7.20;;;2.60;;
22687;SDS011;11511;51.514;7.080;2022-10-12T14:38:49;8.32;;;3.30;;
22687;SDS011;11511;51.514;7.080;2022-10-12T14:41:29;12.40;;;3.25;;
22687;SDS011;11511;51.514;7.080;2022-10-12T14:46:38;5.18;;;3.08;;
22687;SDS011;11511;51.514;7.080;2022-10-12T14:49:17;8.50;;;2.90;;
22687;SDS011;11511;51.514;7.080;2022-10-12T14:51:46;10.80;;;3.47;;
22687;SDS011;11511;51.514;7.080;2022-10-12T14:54:12;9.18;;;3.58;;
22687;SDS011;11511;51.514;7.080;2022-10-12T14:56:38;8.70;;;3.53;;
22687;SDS011;11511;51.514;7.080;2022-10-12T14:59:04;11.35;;;3.88;;
22687;SDS011;11511;51.514;7.080;2022-10-12T15:01:30;7.85;;;3.10;;
22687;SDS011;11511;51.514;7.080;2022-10-12T15:03:55;9.00;;;3.90;;
22687;SDS011;11511;51.514;7.080;2022-10-12T15:06:21;8.82;;;3.47;;
22687;SDS011;11511;51.514;7.080;2022-10-12T15:08:47;9.00;;;3.75;;
22687;SDS011;11511;51.514;7.080;2022-10-12T15:11:14;6.97;;;3.58;;
22687;SDS011;11511;51.514;7.080;2022-10-12T15:13:40;8.02;;;3.78;;
22687;SDS011;11511;51.514;7.080;2022-10-12T15:16:20;6.30;;;3.00;;
22687;SDS011;11511;51.514;7.080;2022-10-12T15:18:47;8.38;;;3.40;;
22687;SDS011;11511;51.514;7.080;2022-10-12T15:21:14;7.88;;;3.50;;
22687;SDS011;11511;51.514;7.080;2022-10-12T15:23:40;9.48;;;3.58;;
22687;SDS011;11511;51.514;7.080;2022-10-12T15:26:08;9.85;;;3.50;;
22687;SDS011;11511;51.514;7.080;2022-10-12T15:28:36;8.18;;;3.50;;
22687;SDS011;11511;51.514;7.080;2022-10-12T15:31:02;7.05;;;3.08;;
22687;SDS011;11511;51.514;7.080;2022-10-12T15:33:28;8.95;;;3.75;;
22687;SDS011;11511;51.514;7.080;2022-10-12T15:35:54;8.48;;;3.78;;
22687;SDS011;11511;51.514;7.080;2022-10-12T15:38:20;7.43;;;3.65;;
22687;SDS011;11511;51.514;7.080;2022-10-12T15:40:47;9.73;;;3.78;;
22687;SDS011;11511;51.514;7.080;2022-10-12T15:43:16;10.00;;;3.67;;
22687;SDS011;11511;51.514;7.080;2022-10-12T15:45:42;14.32;;;4.32;;
22687;SDS011;11511;51.514;7.080;2022-10-12T15:48:07;11.02;;;3.97;;
22687;SDS011;11511;51.514;7.080;2022-10-12T15:50:41;8.68;;;3.88;;
22687;SDS011;11511;51.514;7.080;2022-10-12T15:55:38;8.90;;;4.93;;
22687;SDS011;11511;51.514;7.080;2022-10-12T15:58:04;13.88;;;5.28;;
22687;SDS011;11511;51.514;7.080;2022-10-12T16:00:30;11.48;;;4.82;;
22687;SDS011;11511;51.514;7.080;2022-10-12T16:02:57;12.43;;;4.72;;
22687;SDS011;11511;51.514;7.080;2022-10-12T16:05:28;8.48;;;4.43;;
22687;SDS011;11511;51.514;7.080;2022-10-12T16:07:56;8.88;;;4.47;;
22687;SDS011;11511;51.514;7.080;2022-10-12T16:10:25;10.68;;;4.00;;
22687;SDS011;11511;51.514;7.080;2022-10-12T16:12:53;9.95;;;3.67;;
22687;SDS011;11511;51.514;7.080;2022-10-12T16:15:23;8.55;;;4.25;;
22687;SDS011;11511;51.514;7.080;2022-10-12T16:17:54;9.77;;;4.37;;
22687;SDS011;11511;51.514;7.080;2022-10-12T16:20:20;6.30;;;3.67;;
22687;SDS011;11511;51.514;7.080;2022-10-12T16:22:46;7.65;;;3.78;;
22687;SDS011;11511;51.514;7.080;2022-10-12T16:25:13;7.53;;;3.70;;
22687;SDS011;11511;51.514;7.080;2022-10-12T16:27:41;10.40;;;4.03;;
22687;SDS011;11511;51.514;7.080;2022-10-12T16:30:08;10.35;;;4.40;;
22687;SDS011;11511;51.514;7.080;2022-10-12T16:32:34;12.23;;;4.88;;
22687;SDS011;11511;51.514;7.080;2022-10-12T16:35:00;10.40;;;4.82;;